EWG33A EDDS-EDDW
Flight info
| Callsign | EWG33A |
|---|---|
| Flight time | 0h 57m |
| Altitude | 23000 |
| Route | TAGIK2H TAGIK Z3 ABUMO N850 NIE Z88 VERED VERED3P |
| Aircraft | A321/M-SDE3FGHIRWY/LB1 |
Departure
| Time | 2026-04-30 18:35 |
|---|---|
| Airport | Stuttgart Airport (EDDS) |
Arrival
| Time | 2026-04-30 19:32 |
|---|---|
| Airport | Bremen Airport (EDDW) |
| Time | Latitude | Longitude | Altitude | Speed | Heading |
|---|---|---|---|---|---|
| 2026-04-30 17:59 | 48.68890 | 9.19433 | 1290 ft | 0 kts | 343° |
| 2026-04-30 18:22 | 48.68859 | 9.19448 | 1288 ft | 0 kts | 347° |
| 2026-04-30 18:27 | 48.68817 | 9.19437 | 1289 ft | 4 kts | 62° |
| 2026-04-30 18:27 | 48.68813 | 9.19427 | 1290 ft | 0 kts | 74° |
| 2026-04-30 18:29 | 48.68727 | 9.19485 | 1289 ft | 17 kts | 154° |
| 2026-04-30 18:30 | 48.68749 | 9.19800 | 1286 ft | 13 kts | 73° |
| 2026-04-30 18:30 | 48.68736 | 9.19964 | 1287 ft | 4 kts | 160° |
| 2026-04-30 18:31 | 48.68713 | 9.19974 | 1286 ft | 8 kts | 163° |
| 2026-04-30 18:31 | 48.68675 | 9.19990 | 1285 ft | 0 kts | 164° |
| 2026-04-30 18:32 | 48.68675 | 9.19991 | 1285 ft | 1 kts | 164° |
| 2026-04-30 18:32 | 48.68634 | 9.20008 | 1290 ft | 9 kts | 164° |
| 2026-04-30 18:32 | 48.68588 | 9.20088 | 1289 ft | 0 kts | 74° |
| 2026-04-30 18:34 | 48.68598 | 9.20142 | 1285 ft | 23 kts | 74° |
| 2026-04-30 18:34 | 48.68952 | 9.22007 | 1288 ft | 152 kts | 74° |
| 2026-04-30 18:34 | 48.69241 | 9.23590 | 1875 ft | 155 kts | 77° |
| 2026-04-30 18:35 | 48.69517 | 9.25158 | 2654 ft | 157 kts | 76° |
| 2026-04-30 18:35 | 48.69834 | 9.26851 | 3108 ft | 178 kts | 75° |
| 2026-04-30 18:35 | 48.70556 | 9.28521 | 3460 ft | 210 kts | 42° |
| 2026-04-30 18:36 | 48.73842 | 9.29169 | 4082 ft | 266 kts | 358° |
| 2026-04-30 18:36 | 48.75702 | 9.28761 | 4769 ft | 274 kts | 355° |
| 2026-04-30 18:36 | 48.79511 | 9.27759 | 6201 ft | 281 kts | 354° |
| 2026-04-30 18:37 | 48.81446 | 9.27293 | 6967 ft | 282 kts | 355° |
| 2026-04-30 18:37 | 48.83394 | 9.26862 | 7688 ft | 284 kts | 355° |
| 2026-04-30 18:37 | 48.85360 | 9.26453 | 8423 ft | 285 kts | 356° |
| 2026-04-30 18:37 | 48.87334 | 9.26058 | 9147 ft | 287 kts | 356° |
| 2026-04-30 18:38 | 48.89324 | 9.25667 | 9877 ft | 290 kts | 356° |
| 2026-04-30 18:38 | 48.91334 | 9.25278 | 10522 ft | 295 kts | 356° |
| 2026-04-30 18:38 | 48.93442 | 9.24878 | 10670 ft | 317 kts | 356° |
| 2026-04-30 18:38 | 48.95700 | 9.24450 | 10800 ft | 337 kts | 356° |
| 2026-04-30 18:39 | 48.98066 | 9.23996 | 11191 ft | 346 kts | 355° |
| 2026-04-30 18:39 | 49.00470 | 9.23528 | 11765 ft | 350 kts | 356° |
| 2026-04-30 18:39 | 49.02893 | 9.23054 | 12381 ft | 352 kts | 355° |
| 2026-04-30 18:39 | 49.05331 | 9.22575 | 12997 ft | 355 kts | 355° |
| 2026-04-30 18:40 | 49.07789 | 9.22090 | 13597 ft | 357 kts | 355° |
| 2026-04-30 18:40 | 49.10231 | 9.21608 | 14189 ft | 360 kts | 355° |
| 2026-04-30 18:40 | 49.12753 | 9.21111 | 14718 ft | 362 kts | 355° |
| 2026-04-30 18:40 | 49.15266 | 9.20617 | 15260 ft | 365 kts | 356° |
| 2026-04-30 18:41 | 49.17755 | 9.20133 | 15815 ft | 366 kts | 356° |
| 2026-04-30 18:41 | 49.20291 | 9.19641 | 16372 ft | 368 kts | 356° |
| 2026-04-30 18:41 | 49.22842 | 9.19141 | 16915 ft | 371 kts | 356° |
| 2026-04-30 18:41 | 49.25405 | 9.18633 | 17444 ft | 373 kts | 356° |
| 2026-04-30 18:42 | 49.27987 | 9.18124 | 17961 ft | 375 kts | 356° |
| 2026-04-30 18:42 | 49.33196 | 9.17097 | 18938 ft | 380 kts | 356° |
| 2026-04-30 18:42 | 49.35825 | 9.16578 | 19385 ft | 382 kts | 356° |
| 2026-04-30 18:45 | 49.62883 | 9.13864 | 23534 ft | 400 kts | 1° |
| 2026-04-30 18:45 | 49.65676 | 9.13723 | 23936 ft | 403 kts | 1° |
| 2026-04-30 18:45 | 49.68482 | 9.13571 | 24268 ft | 405 kts | 1° |
| 2026-04-30 18:46 | 49.71305 | 9.13415 | 24618 ft | 406 kts | 1° |
| 2026-04-30 18:46 | 49.74136 | 9.13259 | 24965 ft | 408 kts | 1° |
| 2026-04-30 18:46 | 49.76979 | 9.13104 | 25312 ft | 410 kts | 1° |
| 2026-04-30 18:46 | 49.79832 | 9.12951 | 25650 ft | 412 kts | 1° |
| 2026-04-30 18:47 | 49.82703 | 9.12799 | 25983 ft | 413 kts | 1° |
| 2026-04-30 18:47 | 49.85583 | 9.12646 | 26305 ft | 415 kts | 1° |
| 2026-04-30 18:47 | 49.88472 | 9.12490 | 26639 ft | 417 kts | 1° |
| 2026-04-30 18:47 | 49.91375 | 9.12332 | 26969 ft | 418 kts | 1° |
| 2026-04-30 18:48 | 49.94289 | 9.12173 | 27279 ft | 420 kts | 1° |
| 2026-04-30 18:48 | 49.97219 | 9.12015 | 27548 ft | 423 kts | 1° |
| 2026-04-30 18:48 | 50.00165 | 9.11858 | 27806 ft | 426 kts | 1° |
| 2026-04-30 18:48 | 50.03133 | 9.11701 | 28098 ft | 428 kts | 1° |
| 2026-04-30 18:49 | 50.06115 | 9.11543 | 28407 ft | 429 kts | 1° |
| 2026-04-30 18:49 | 50.09109 | 9.11382 | 28716 ft | 431 kts | 1° |
| 2026-04-30 18:49 | 50.12114 | 9.11216 | 29014 ft | 433 kts | 1° |
| 2026-04-30 18:49 | 50.15130 | 9.11049 | 29318 ft | 435 kts | 1° |
| 2026-04-30 18:50 | 50.18155 | 9.10881 | 29617 ft | 436 kts | 1° |
| 2026-04-30 18:50 | 50.21198 | 9.10712 | 29895 ft | 438 kts | 1° |
| 2026-04-30 18:50 | 50.24246 | 9.10546 | 30157 ft | 439 kts | 1° |
| 2026-04-30 18:50 | 50.27305 | 9.10382 | 30420 ft | 441 kts | 1° |
| 2026-04-30 18:51 | 50.30376 | 9.10218 | 30630 ft | 442 kts | 1° |
| 2026-04-30 18:51 | 50.33455 | 9.10051 | 30839 ft | 443 kts | 1° |
| 2026-04-30 18:51 | 50.36536 | 9.09882 | 31093 ft | 443 kts | 1° |
| 2026-04-30 18:51 | 50.39615 | 9.09714 | 31379 ft | 441 kts | 1° |
| 2026-04-30 18:52 | 50.42679 | 9.09545 | 31672 ft | 440 kts | 1° |
| 2026-04-30 18:52 | 50.45735 | 9.09375 | 31966 ft | 439 kts | 1° |
| 2026-04-30 18:52 | 50.48788 | 9.09204 | 32248 ft | 438 kts | 1° |
| 2026-04-30 18:52 | 50.51830 | 9.09036 | 32535 ft | 437 kts | 1° |
| 2026-04-30 18:53 | 50.54865 | 9.08870 | 32820 ft | 436 kts | 0° |
| 2026-04-30 18:53 | 50.57896 | 9.08704 | 33088 ft | 435 kts | 0° |
| 2026-04-30 18:53 | 50.60916 | 9.08538 | 33333 ft | 435 kts | 0° |
| 2026-04-30 18:54 | 50.66883 | 9.08207 | 33400 ft | 424 kts | 0° |
| 2026-04-30 18:54 | 50.72770 | 9.07882 | 33402 ft | 423 kts | 1° |
| 2026-04-30 18:55 | 50.78643 | 9.07568 | 33401 ft | 422 kts | 1° |
| 2026-04-30 18:55 | 50.87457 | 9.07083 | 33405 ft | 422 kts | 0° |
| 2026-04-30 18:56 | 50.96269 | 9.06592 | 33411 ft | 422 kts | 0° |
| 2026-04-30 18:57 | 51.05045 | 9.06093 | 33413 ft | 423 kts | 0° |
| 2026-04-30 18:57 | 51.10926 | 9.05759 | 33416 ft | 423 kts | 0° |
| 2026-04-30 18:58 | 51.19749 | 9.05252 | 33418 ft | 423 kts | 0° |
| 2026-04-30 18:59 | 51.28587 | 9.04745 | 33413 ft | 424 kts | 0° |
| 2026-04-30 19:00 | 51.37260 | 9.06565 | 33429 ft | 420 kts | 13° |
| 2026-04-30 19:00 | 51.40115 | 9.07543 | 33429 ft | 420 kts | 13° |
| 2026-04-30 19:01 | 51.51553 | 9.11382 | 33424 ft | 421 kts | 12° |
| 2026-04-30 19:02 | 51.60268 | 9.13336 | 33426 ft | 422 kts | 8° |
| 2026-04-30 19:03 | 51.71916 | 9.15651 | 33221 ft | 421 kts | 9° |
| 2026-04-30 19:03 | 51.77672 | 9.16911 | 32172 ft | 414 kts | 9° |
| 2026-04-30 19:04 | 51.83325 | 9.18159 | 31162 ft | 406 kts | 9° |
| 2026-04-30 19:04 | 51.88873 | 9.19383 | 30123 ft | 399 kts | 9° |
| 2026-04-30 19:05 | 51.94312 | 9.20720 | 28995 ft | 393 kts | 11° |
| 2026-04-30 19:05 | 51.99756 | 9.22190 | 27932 ft | 398 kts | 11° |
| 2026-04-30 19:06 | 52.05201 | 9.23653 | 26893 ft | 393 kts | 11° |
| 2026-04-30 19:06 | 52.06991 | 9.24091 | 26558 ft | 392 kts | 10° |
| 2026-04-30 19:06 | 52.12371 | 9.25105 | 25570 ft | 387 kts | 8° |
| 2026-04-30 19:07 | 52.17807 | 9.25982 | 24610 ft | 393 kts | 8° |
| 2026-04-30 19:07 | 52.20527 | 9.26441 | 24139 ft | 391 kts | 8° |
| 2026-04-30 19:08 | 52.25893 | 9.27473 | 23082 ft | 385 kts | 11° |
| 2026-04-30 19:08 | 52.31141 | 9.28849 | 22387 ft | 380 kts | 11° |
| 2026-04-30 19:08 | 52.33799 | 9.28903 | 22412 ft | 387 kts | 354° |
| 2026-04-30 19:09 | 52.38666 | 9.25026 | 22414 ft | 401 kts | 326° |
| 2026-04-30 19:09 | 52.40870 | 9.22229 | 22408 ft | 401 kts | 326° |
| 2026-04-30 19:09 | 52.43065 | 9.19426 | 22292 ft | 397 kts | 326° |
| 2026-04-30 19:10 | 52.47292 | 9.14007 | 21774 ft | 375 kts | 326° |
| 2026-04-30 19:10 | 52.51373 | 9.08803 | 20921 ft | 368 kts | 326° |
| 2026-04-30 19:11 | 52.53387 | 9.06235 | 20416 ft | 366 kts | 326° |
| 2026-04-30 19:11 | 52.57386 | 9.01128 | 19444 ft | 362 kts | 326° |
| 2026-04-30 19:11 | 52.59376 | 8.98581 | 18973 ft | 362 kts | 326° |
| 2026-04-30 19:12 | 52.61358 | 8.96039 | 18478 ft | 361 kts | 326° |
| 2026-04-30 19:12 | 52.63335 | 8.93504 | 17949 ft | 359 kts | 326° |
| 2026-04-30 19:12 | 52.65302 | 8.90984 | 17426 ft | 357 kts | 326° |
| 2026-04-30 19:13 | 52.69175 | 8.86006 | 16411 ft | 354 kts | 326° |
| 2026-04-30 19:13 | 52.73002 | 8.81062 | 15409 ft | 344 kts | 325° |
| 2026-04-30 19:13 | 52.74869 | 8.78644 | 14929 ft | 338 kts | 326° |
| 2026-04-30 19:14 | 52.76705 | 8.76266 | 14454 ft | 333 kts | 326° |
| 2026-04-30 19:14 | 52.78516 | 8.73918 | 13963 ft | 332 kts | 326° |
| 2026-04-30 19:14 | 52.80331 | 8.71564 | 13435 ft | 332 kts | 325° |
| 2026-04-30 19:14 | 52.82149 | 8.69204 | 12922 ft | 332 kts | 325° |
| 2026-04-30 19:15 | 52.83961 | 8.66847 | 12415 ft | 331 kts | 325° |
| 2026-04-30 19:15 | 52.87578 | 8.62139 | 11416 ft | 330 kts | 325° |
| 2026-04-30 19:15 | 52.89381 | 8.59792 | 10941 ft | 329 kts | 324° |
| 2026-04-30 19:16 | 52.91180 | 8.57448 | 10457 ft | 329 kts | 324° |
| 2026-04-30 19:16 | 52.92974 | 8.55103 | 9947 ft | 328 kts | 324° |
| 2026-04-30 19:16 | 52.96542 | 8.50431 | 8897 ft | 326 kts | 324° |
| 2026-04-30 19:17 | 52.98314 | 8.48107 | 8399 ft | 323 kts | 324° |
| 2026-04-30 19:17 | 53.01736 | 8.43601 | 7489 ft | 302 kts | 324° |
| 2026-04-30 19:17 | 53.03182 | 8.41190 | 7401 ft | 295 kts | 303° |
| 2026-04-30 19:18 | 53.03875 | 8.35736 | 7414 ft | 296 kts | 258° |
| 2026-04-30 19:18 | 53.02698 | 8.31790 | 7410 ft | 288 kts | 222° |
| 2026-04-30 19:18 | 53.01185 | 8.29608 | 7410 ft | 287 kts | 214° |
| 2026-04-30 19:19 | 52.99609 | 8.27571 | 7412 ft | 287 kts | 214° |
| 2026-04-30 19:19 | 52.98004 | 8.25522 | 7412 ft | 287 kts | 214° |
| 2026-04-30 19:19 | 52.94856 | 8.21514 | 7411 ft | 287 kts | 214° |
| 2026-04-30 19:20 | 52.93274 | 8.19487 | 7410 ft | 288 kts | 216° |
| 2026-04-30 19:20 | 52.91967 | 8.16961 | 7403 ft | 293 kts | 240° |
| 2026-04-30 19:20 | 52.91446 | 8.10344 | 6710 ft | 294 kts | 273° |
| 2026-04-30 19:21 | 52.91602 | 8.06982 | 6331 ft | 292 kts | 274° |
| 2026-04-30 19:21 | 52.91965 | 8.00307 | 5578 ft | 289 kts | 274° |
| 2026-04-30 19:22 | 52.92845 | 7.93940 | 4968 ft | 284 kts | 306° |
| 2026-04-30 19:22 | 52.98008 | 7.91492 | 4987 ft | 269 kts | 31° |
| 2026-04-30 19:23 | 53.00885 | 7.98787 | 4985 ft | 257 kts | 72° |
| 2026-04-30 19:24 | 53.02149 | 8.04327 | 4986 ft | 256 kts | 72° |
| 2026-04-30 19:24 | 53.02726 | 8.07116 | 4982 ft | 254 kts | 82° |
| 2026-04-30 19:24 | 53.02971 | 8.12937 | 4989 ft | 253 kts | 89° |
| 2026-04-30 19:25 | 53.03242 | 8.21677 | 4986 ft | 252 kts | 89° |
| 2026-04-30 19:26 | 53.03402 | 8.27510 | 4983 ft | 253 kts | 89° |
| 2026-04-30 19:26 | 53.03559 | 8.33346 | 4985 ft | 253 kts | 89° |
| 2026-04-30 19:26 | 53.03637 | 8.36267 | 4819 ft | 253 kts | 89° |
| 2026-04-30 19:27 | 53.03789 | 8.42023 | 4187 ft | 245 kts | 89° |
| 2026-04-30 19:27 | 53.03931 | 8.47522 | 3568 ft | 231 kts | 89° |
| 2026-04-30 19:28 | 53.03997 | 8.50143 | 3254 ft | 224 kts | 89° |
| 2026-04-30 19:28 | 53.04123 | 8.55133 | 2678 ft | 207 kts | 89° |
| 2026-04-30 19:29 | 53.04235 | 8.59631 | 2157 ft | 181 kts | 90° |
| 2026-04-30 19:29 | 53.04283 | 8.61628 | 1903 ft | 169 kts | 90° |
| 2026-04-30 19:30 | 53.04412 | 8.66945 | 1283 ft | 141 kts | 90° |
| 2026-04-30 19:30 | 53.04487 | 8.70148 | 917 ft | 137 kts | 89° |
| 2026-04-30 19:31 | 53.04566 | 8.73334 | 550 ft | 139 kts | 89° |
| 2026-04-30 19:31 | 53.04609 | 8.74953 | 340 ft | 140 kts | 89° |
| 2026-04-30 19:31 | 53.04673 | 8.78168 | 24 ft | 131 kts | 89° |
| 2026-04-30 19:32 | 53.04702 | 8.79417 | 20 ft | 77 kts | 87° |
| 2026-04-30 19:32 | 53.04719 | 8.79880 | 21 ft | 18 kts | 72° |
| 2026-04-30 19:32 | 53.04811 | 8.79975 | 23 ft | 17 kts | 351° |
| 2026-04-30 19:32 | 53.04874 | 8.79866 | 23 ft | 13 kts | 285° |
| 2026-04-30 19:33 | 53.04874 | 8.79721 | 25 ft | 13 kts | 269° |
| 2026-04-30 19:33 | 53.04871 | 8.79552 | 23 ft | 17 kts | 267° |
| 2026-04-30 19:33 | 53.04866 | 8.79353 | 22 ft | 17 kts | 268° |
| 2026-04-30 19:33 | 53.04861 | 8.79147 | 20 ft | 16 kts | 267° |
| 2026-04-30 19:34 | 53.04855 | 8.78936 | 16 ft | 20 kts | 268° |
| 2026-04-30 19:34 | 53.04854 | 8.78727 | 18 ft | 17 kts | 282° |
| 2026-04-30 19:34 | 53.05059 | 8.78537 | 18 ft | 19 kts | 319° |
| 2026-04-30 19:35 | 53.05126 | 8.78436 | 19 ft | 2 kts | 317° |
| 2026-04-30 19:35 | 53.05127 | 8.78435 | 19 ft | 0 kts | 317° |
| 2026-04-30 19:35 | 53.05129 | 8.78432 | 19 ft | 2 kts | 317° |
| 2026-04-30 19:35 | 53.05184 | 8.78447 | 19 ft | 10 kts | 37° |
| 2026-04-30 19:36 | 53.05201 | 8.78467 | 20 ft | 0 kts | 36° |
| 2026-04-30 19:36 | 53.05203 | 8.78470 | 19 ft | 0 kts | 36° |